Time;durP1;ratioP1;P1;durP2;ratioP2;P2;SDS_P1;SDS_P2;PMS_P1;PMS_P2;Temp;Humidity;BMP_temperature;BMP_pressure;BME280_temperature;BME280_humidity;BME280_pressure;Samples;Min_cycle;Max_cycle;Signal;HPM_P1;HPM_P2
2022/09/28 00:01:55;;;;;;;36.27;22.03;;;;;;;15.51;81.68;98924.17;125214;1099;102831;-74
2022/09/28 00:04:26;;;;;;;32.43;20.47;;;;;;;15.50;82.75;98914.47;124499;1099;102168;-73
2022/09/28 00:06:57;;;;;;;32.07;21.10;;;;;;;15.50;82.74;98915.34;124610;1099;104163;-74
2022/09/28 00:09:29;;;;;;;33.90;20.80;;;;;;;15.49;82.61;98912.70;124726;1099;104221;-73
2022/09/28 00:12:00;;;;;;;36.13;21.83;;;;;;;15.45;81.88;98915.38;124622;1099;104265;-73
2022/09/28 00:14:32;;;;;;;32.93;20.83;;;;;;;15.42;81.98;98912.77;124641;1099;104210;-73
2022/09/28 00:17:03;;;;;;;36.93;23.57;;;;;;;15.39;82.33;98912.80;124643;1099;104357;-73
2022/09/28 00:19:34;;;;;;;35.80;22.93;;;;;;;15.35;82.06;98911.09;124585;1099;103575;-74
2022/09/28 00:22:05;;;;;;;35.30;22.47;;;;;;;15.30;82.06;98904.95;124681;1099;101822;-74
2022/09/28 00:24:37;;;;;;;36.30;22.80;;;;;;;15.24;82.23;98897.11;124677;1099;104213;-73
2022/09/28 00:27:08;;;;;;;35.53;23.37;;;;;;;15.28;82.58;98906.73;124717;1099;104382;-73
2022/09/28 00:29:39;;;;;;;34.63;23.50;;;;;;;15.30;82.19;98914.66;124765;1099;102619;-73
2022/09/28 00:32:15;;;;;;;33.60;21.63;;;;;;;15.31;82.21;98925.20;124809;1099;104335;-74
2022/09/28 00:34:47;;;;;;;34.40;21.80;;;;;;;15.31;82.38;98926.98;124712;1099;104207;-74
2022/09/28 00:37:21;;;;;;;35.53;22.20;;;;;;;15.31;82.84;98927.85;124712;1099;104153;-74
2022/09/28 00:39:55;;;;;;;35.37;22.57;;;;;;;15.32;82.95;98926.08;124647;1099;101950;-73
2022/09/28 00:42:27;;;;;;;30.62;21.55;;;;;;;15.33;83.10;98931.34;124692;1099;104232;-74
2022/09/28 00:44:59;;;;;;;34.00;22.30;;;;;;;15.36;82.83;98928.68;124626;1099;104226;-74
2022/09/28 00:47:48;;;;;;;31.50;21.50;;;;;;;15.38;83.44;98923.38;124693;1099;102592;-74
2022/09/28 00:50:26;;;;;;;31.70;21.07;;;;;;;15.36;83.06;98914.59;124714;1099;104187;-74
2022/09/28 00:53:05;;;;;;;31.13;21.97;;;;;;;15.37;83.45;98913.72;124686;1098;104358;-73
2022/09/28 00:55:40;;;;;;;34.83;22.77;;;;;;;15.40;83.19;98911.05;124664;1099;104189;-73
2022/09/28 00:58:17;;;;;;;34.90;22.90;;;;;;;15.40;83.09;98917.20;124751;1099;104229;-74
2022/09/28 01:00:49;;;;;;;33.20;22.67;;;;;;;15.42;82.63;98917.19;124658;1099;102157;-74
2022/09/28 01:03:20;;;;;;;33.00;22.40;;;;;;;15.42;83.21;98918.05;124709;1099;102893;-73
2022/09/28 01:05:53;;;;;;;35.17;23.00;;;;;;;15.40;83.54;98906.62;124618;1099;103569;-73
2022/09/28 01:08:27;;;;;;;37.33;22.57;;;;;;;15.34;83.29;98903.17;124676;1099;104172;-74
2022/09/28 01:11:00;;;;;;;34.20;22.00;;;;;;;15.30;83.61;98906.72;124568;1099;104223;-74
2022/09/28 01:13:32;;;;;;;31.90;22.17;;;;;;;15.25;83.14;98914.69;124738;1099;104309;-74
2022/09/28 01:16:12;;;;;;;33.23;21.37;;;;;;;15.24;83.64;98923.53;124616;1099;104175;-74
2022/09/28 01:18:53;;;;;;;34.97;21.30;;;;;;;15.25;83.21;98919.97;124654;1099;104252;-74
2022/09/28 01:21:26;;;;;;;34.67;22.33;;;;;;;15.26;84.01;98912.03;124673;1099;104051;-74
2022/09/28 01:24:21;;;;;;;32.60;22.47;;;;;;;15.28;83.68;98906.73;124680;1099;104319;-74
2022/09/28 01:27:15;;;;;;;34.10;21.97;;;;;;;15.29;83.77;98905.86;124633;1099;103626;-74
2022/09/28 01:29:55;;;;;;;33.93;22.93;;;;;;;15.23;83.19;98904.13;124597;1099;119812;-74
2022/09/28 01:32:36;;;;;;;31.43;21.33;;;;;;;15.18;84.06;98899.80;124681;1099;104336;-74
2022/09/28 01:35:13;;;;;;;32.70;22.33;;;;;;;15.18;83.08;98897.16;124620;1099;104252;-74
2022/09/28 01:37:52;;;;;;;35.27;22.73;;;;;;;15.18;83.38;98895.38;124675;1099;104191;-74
2022/09/28 01:40:26;;;;;;;33.83;22.63;;;;;;;15.21;83.81;98890.07;124618;1098;104233;-74
2022/09/28 01:43:03;;;;;;;32.70;21.27;;;;;;;15.24;84.10;98894.46;124612;1099;104259;-74
2022/09/28 01:45:42;;;;;;;30.65;21.15;;;;;;;15.24;83.87;98890.05;124664;1098;102358;-73
2022/09/28 01:48:19;;;;;;;29.83;20.03;;;;;;;15.25;83.36;98886.52;124714;1099;102251;-74
2022/09/28 01:51:11;;;;;;;30.60;20.40;;;;;;;15.27;84.21;98889.16;124733;1098;104202;-74
2022/09/28 01:53:49;;;;;;;30.37;20.73;;;;;;;15.28;83.32;98882.95;124670;1099;104288;-73
2022/09/28 01:56:28;;;;;;;30.90;21.07;;;;;;;15.30;83.37;98888.23;124700;1099;104254;-74
2022/09/28 01:59:06;;;;;;;29.57;20.43;;;;;;;15.32;84.34;98897.00;124703;1099;104169;-74
2022/09/28 02:01:43;;;;;;;32.30;20.87;;;;;;;15.33;83.48;98904.92;124225;1099;102067;-74
2022/09/28 02:04:18;;;;;;;34.33;22.13;;;;;;;15.33;84.54;98907.56;124664;1099;104198;-74
2022/09/28 02:06:56;;;;;;;31.33;21.77;;;;;;;15.33;83.84;98899.63;124673;1099;104106;-73
2022/09/28 02:09:33;;;;;;;30.63;20.73;;;;;;;15.32;83.53;98887.33;124713;1099;104265;-74
2022/09/28 02:12:10;;;;;;;35.70;22.33;;;;;;;15.34;83.98;98888.19;124684;1099;104425;-74
2022/09/28 02:14:45;;;;;;;37.17;24.43;;;;;;;15.33;84.56;98894.34;124617;1099;104264;-73
2022/09/28 02:17:17;;;;;;;38.87;26.23;;;;;;;15.36;83.91;98904.89;124626;1099;102833;-73
2022/09/28 02:19:51;;;;;;;37.80;25.03;;;;;;;15.37;83.72;98901.37;124670;1099;104239;-73
2022/09/28 02:22:28;;;;;;;35.70;24.30;;;;;;;15.38;84.27;98911.06;124618;1099;104764;-72
2022/09/28 02:25:07;;;;;;;36.40;25.43;;;;;;;15.35;84.20;98908.45;124728;1099;104214;-72
2022/09/28 02:27:43;;;;;;;35.17;23.53;;;;;;;15.38;84.82;98899.59;124639;1099;104120;-73
2022/09/28 02:30:16;;;;;;;36.13;24.87;;;;;;;15.36;84.29;98894.32;124608;1099;104618;-73
2022/09/28 02:32:50;;;;;;;36.10;24.83;;;;;;;15.35;84.28;98903.16;124707;1099;102181;-73
2022/09/28 02:35:22;;;;;;;33.40;24.18;;;;;;;15.37;83.93;98897.86;124621;1098;104162;-72
2022/09/28 02:37:53;;;;;;;35.80;24.67;;;;;;;15.36;83.92;98899.61;124571;1099;104201;-73
2022/09/28 02:40:29;;;;;;;36.70;23.70;;;;;;;15.34;84.49;98890.83;124588;1099;103563;-72
2022/09/28 02:43:09;;;;;;;36.93;24.60;;;;;;;15.28;84.14;98897.03;124588;1099;104296;-72
2022/09/28 02:45:50;;;;;;;32.80;23.10;;;;;;;15.27;84.86;98899.72;124616;1099;104268;-72
2022/09/28 02:48:35;;;;;;;36.17;24.20;;;;;;;15.28;84.32;98896.17;124701;1099;104242;-72
2022/09/28 02:51:18;;;;;;;34.37;23.97;;;;;;;15.26;84.06;98903.24;124551;1099;104296;-73
2022/09/28 02:54:17;;;;;;;34.33;23.77;;;;;;;15.26;84.15;98903.24;124730;1099;104331;-72
2022/09/28 02:57:00;;;;;;;36.83;23.97;;;;;;;15.28;84.12;98904.09;124679;1099;102820;-73
2022/09/28 02:59:44;;;;;;;36.20;24.77;;;;;;;15.30;84.82;98904.08;124745;1099;102762;-72
2022/09/28 03:02:27;;;;;;;34.23;24.57;;;;;;;15.31;85.14;98898.78;124595;1099;117826;-73
2022/09/28 03:05:20;;;;;;;38.70;25.13;;;;;;;15.33;84.55;98904.92;124654;1099;104408;-73
2022/09/28 03:07:58;;;;;;;34.70;24.23;;;;;;;15.35;85.12;98911.09;124694;1098;102791;-72
2022/09/28 03:10:37;;;;;;;35.30;25.77;;;;;;;15.36;84.62;98911.95;124682;1099;104162;-72
2022/09/28 03:13:09;;;;;;;34.27;24.83;;;;;;;15.36;84.61;98907.53;124705;1098;104248;-72
2022/09/28 03:15:41;;;;;;;36.47;24.47;;;;;;;15.37;84.57;98905.79;124702;1099;103572;-72
2022/09/28 03:18:12;;;;;;;36.77;24.87;;;;;;;15.38;84.89;98899.59;124655;1099;104229;-73
2022/09/28 03:20:45;;;;;;;35.97;25.70;;;;;;;15.38;84.91;98897.84;124231;1098;104120;-72
2022/09/28 03:23:16;;;;;;;40.60;25.63;;;;;;;15.38;85.33;98887.28;124626;1099;104166;-72
2022/09/28 03:25:47;;;;;;;40.47;24.87;;;;;;;15.38;85.36;98879.34;124354;1099;104188;-72
2022/09/28 03:28:20;;;;;;;38.40;23.47;;;;;;;15.37;84.40;98880.23;124487;1099;104242;-72
2022/09/28 03:30:52;;;;;;;35.48;22.75;;;;;;;15.32;85.22;98887.33;124649;1099;102288;-72
2022/09/28 03:33:24;;;;;;;35.30;23.13;;;;;;;15.28;84.39;98894.39;124617;1099;102903;-72
2022/09/28 03:35:55;;;;;;;33.77;22.73;;;;;;;15.25;84.97;98894.45;124646;1099;104252;-73
2022/09/28 03:38:27;;;;;;;33.55;23.70;;;;;;;15.27;85.21;98899.72;124725;1099;104166;-73
2022/09/28 03:41:00;;;;;;;33.43;23.10;;;;;;;15.30;85.12;98904.08;124679;1099;104263;-73
2022/09/28 03:43:35;;;;;;;39.10;24.13;;;;;;;15.32;85.62;98892.62;124613;1099;104264;-72
2022/09/28 03:46:07;;;;;;;32.90;23.00;;;;;;;15.33;85.64;98883.78;124633;1099;104182;-72
2022/09/28 03:48:43;;;;;;;33.50;22.63;;;;;;;15.34;84.71;98888.19;124609;1098;104185;-72
2022/09/28 03:51:15;;;;;;;31.37;21.93;;;;;;;15.35;84.69;98892.59;124661;1099;101913;-73
2022/09/28 03:53:46;;;;;;;30.30;21.13;;;;;;;15.34;85.11;98889.96;124698;1099;103532;-73
2022/09/28 03:56:17;;;;;;;32.47;20.40;;;;;;;15.31;85.43;98885.56;124577;1099;104417;-72
2022/09/28 03:58:48;;;;;;;30.70;20.63;;;;;;;15.31;85.62;98888.21;124643;1099;104239;-72
2022/09/28 04:01:20;;;;;;;29.83;21.33;;;;;;;15.32;85.34;98905.83;124610;1099;104188;-73
2022/09/28 04:03:55;;;;;;;34.00;20.30;;;;;;;15.30;85.01;98886.45;124634;1099;104788;-72
2022/09/28 04:06:27;;;;;;;32.30;21.07;;;;;;;15.32;85.74;98887.33;124267;1099;102797;-72
2022/09/28 04:08:58;;;;;;;29.93;20.43;;;;;;;15.35;85.25;98891.69;124619;1099;104274;-73
2022/09/28 04:11:29;;;;;;;35.37;21.53;;;;;;;15.36;85.44;98888.17;124633;1099;104233;-73
2022/09/28 04:14:02;;;;;;;40.03;22.80;;;;;;;15.37;85.83;98889.94;124680;1099;103334;-72
2022/09/28 04:16:34;;;;;;;40.07;23.37;;;;;;;15.37;85.79;98896.08;124713;1099;104194;-73
2022/09/28 04:19:18;;;;;;;39.20;22.02;;;;;;;15.36;85.32;98899.61;124635;1099;104290;-72
2022/09/28 04:22:08;;;;;;;35.83;25.03;;;;;;;15.38;85.58;98895.20;124708;1099;101847;-72
2022/09/28 04:24:42;;;;;;;43.03;24.33;;;;;;;15.39;85.98;98886.36;124682;1098;104185;-73
2022/09/28 04:30:00;;;;;;;40.47;23.07;;;;;;;15.41;85.69;98879.32;124710;1099;102118;-73
2022/09/28 04:32:33;;;;;;;39.70;24.07;;;;;;;15.42;85.61;98888.98;124675;1099;103664;-73
2022/09/28 04:35:04;;;;;;;34.30;23.07;;;;;;;15.45;85.73;98890.72;124714;1099;104259;-73
2022/09/28 04:37:36;;;;;;;39.60;25.73;;;;;;;15.46;85.32;98898.64;124746;1099;103232;-73
2022/09/28 04:40:10;;;;;;;41.00;25.50;;;;;;;15.48;86.09;98898.63;124714;1099;104292;-74
2022/09/28 04:42:42;;;;;;;39.93;25.40;;;;;;;15.50;86.10;98882.75;124652;1099;104741;-73
2022/09/28 04:45:14;;;;;;;39.87;26.07;;;;;;;15.55;85.44;98875.64;124659;1098;102931;-74
2022/09/28 04:47:48;;;;;;;41.03;25.43;;;;;;;15.58;86.43;98873.86;124666;1099;104437;-74
2022/09/28 04:50:33;;;;;;;42.30;26.62;;;;;;;15.60;85.77;98866.78;124646;1099;104259;-73
2022/09/28 04:53:11;;;;;;;46.33;27.93;;;;;;;15.61;86.12;98860.61;124570;1099;102879;-73
2022/09/28 04:55:44;;;;;;;45.33;28.33;;;;;;;15.64;85.97;98871.16;124618;1099;104219;-73
2022/09/28 04:58:15;;;;;;;43.37;28.37;;;;;;;15.67;86.01;98856.14;124634;1099;104335;-73
2022/09/28 05:00:47;;;;;;;41.60;28.83;;;;;;;15.70;86.08;98856.10;124606;1099;104153;-72
2022/09/28 05:03:53;;;;;;;43.07;29.03;;;;;;;15.77;86.12;98866.63;124162;1102;104399;-73
2022/09/28 05:06:36;;;;;;;;;;;;;;;15.83;86.75;98867.44;124658;1099;102609;-74
2022/09/28 05:09:10;;;;;;;40.60;27.00;;;;;;;15.86;86.22;98870.05;124724;1099;103308;-73
2022/09/28 05:11:41;;;;;;;40.33;25.87;;;;;;;15.92;86.71;98867.33;124744;1099;102778;-73
2022/09/28 05:14:18;;;;;;;38.67;25.70;;;;;;;16.01;86.59;98876.94;124526;1099;104312;-73
2022/09/28 05:16:50;;;;;;;38.60;25.70;;;;;;;16.13;86.10;98882.94;124647;1099;103570;-74
2022/09/28 05:19:31;;;;;;;38.43;23.40;;;;;;;16.21;86.66;98884.62;124636;1099;104290;-73
2022/09/28 05:22:10;;;;;;;38.17;22.70;;;;;;;16.23;86.60;98888.12;124722;1099;104176;-74
2022/09/28 05:24:47;;;;;;;34.77;22.37;;;;;;;16.20;85.75;98893.45;124810;1099;104192;-73
2022/09/28 05:27:21;;;;;;;37.40;23.70;;;;;;;16.13;85.94;98887.38;124682;1099;104223;-73
2022/09/28 05:30:03;;;;;;;36.73;24.80;;;;;;;16.11;85.52;98884.74;124330;1099;102457;-74
2022/09/28 05:32:42;;;;;;;38.30;26.87;;;;;;;16.14;86.39;98884.70;124691;1099;104207;-74
2022/09/28 05:35:44;;;;;;;39.67;25.63;;;;;;;16.26;86.68;98886.30;124692;1099;104166;-74
2022/09/28 05:38:16;;;;;;;35.60;25.37;;;;;;;16.34;86.65;98892.35;124731;1099;104258;-74
2022/09/28 05:40:52;;;;;;;36.37;25.07;;;;;;;16.43;86.26;98895.80;124718;1099;102810;-74
2022/09/28 05:43:25;;;;;;;43.13;25.37;;;;;;;16.51;85.98;98902.72;124740;1099;104259;-74
2022/09/28 05:46:00;;;;;;;44.17;28.47;;;;;;;16.60;86.09;98899.08;124791;1099;111970;-73
2022/09/28 05:48:39;;;;;;;39.37;27.40;;;;;;;16.66;86.62;98904.28;124734;1099;101884;-73
2022/09/28 05:51:10;;;;;;;41.20;28.10;;;;;;;16.73;86.15;98901.55;124433;1099;104329;-73
2022/09/28 05:53:42;;;;;;;42.30;29.50;;;;;;;16.72;86.59;98900.68;124241;1099;104444;-73
2022/09/28 05:56:14;;;;;;;42.03;28.30;;;;;;;16.74;86.27;98905.95;124583;1099;104226;-75
2022/09/28 05:58:51;;;;;;;39.17;28.27;;;;;;;16.77;85.89;98909.42;124637;1099;102181;-76
2022/09/28 06:01:29;;;;;;;39.47;27.53;;;;;;;16.79;86.61;98904.97;124343;1099;104232;-76
2022/09/28 06:04:04;;;;;;;39.37;28.70;;;;;;;16.82;86.44;98907.57;124385;1099;104910;-76
2022/09/28 06:06:40;;;;;;;41.40;27.20;;;;;;;16.84;86.05;98903.14;124359;1099;102845;-78
2022/09/28 06:09:12;;;;;;;40.23;25.77;;;;;;;16.87;86.41;98905.75;124377;1099;104201;-77
2022/09/28 06:12:18;;;;;;;37.37;26.20;;;;;;;16.87;86.34;98904.88;124767;1099;103610;-75
2022/09/28 06:14:55;;;;;;;39.40;27.77;;;;;;;16.85;86.45;98910.17;124716;1099;104265;-74
2022/09/28 06:17:30;;;;;;;39.27;26.80;;;;;;;16.87;86.04;98913.70;124725;1099;104660;-75
2022/09/28 06:20:20;;;;;;;;;;;;;;;16.89;86.19;98916.32;124796;1099;101988;-74
2022/09/28 06:23:02;;;;;;;38.67;25.67;;;;;;;16.92;86.36;98910.11;124765;1099;102252;-74
2022/09/28 06:25:36;;;;;;;40.38;27.22;;;;;;;16.90;86.21;98902.19;124313;1099;103043;-74
2022/09/28 06:28:11;;;;;;;38.57;25.87;;;;;;;16.97;86.06;98908.26;124629;1099;103667;-73
2022/09/28 06:30:44;;;;;;;35.17;24.70;;;;;;;17.02;85.83;98909.08;124635;1098;102992;-74
2022/09/28 06:33:19;;;;;;;37.03;23.93;;;;;;;17.02;86.14;98895.83;125185;1098;101974;-73
2022/09/28 06:35:51;;;;;;;34.40;22.40;;;;;;;17.15;86.32;98907.97;124583;1099;102781;-74
2022/09/28 06:38:23;;;;;;;39.67;23.63;;;;;;;17.21;85.91;98913.16;124310;1099;102764;-73
2022/09/28 06:40:58;;;;;;;36.90;23.20;;;;;;;17.29;85.84;98918.34;124648;1099;104328;-72
2022/09/28 06:43:29;;;;;;;33.47;23.10;;;;;;;17.39;86.35;98919.95;124563;1098;104155;-72
2022/09/28 06:46:24;;;;;;;32.53;21.53;;;;;;;17.53;85.86;98924.11;124648;1099;104357;-73
2022/09/28 06:49:15;;;;;;;36.80;24.00;;;;;;;17.72;85.67;98927.33;124673;1099;104172;-73
2022/09/28 06:52:06;;;;;;;35.03;21.90;;;;;;;17.90;85.90;98929.67;124756;1099;102181;-75
2022/09/28 06:54:57;;;;;;;32.13;20.30;;;;;;;18.07;85.64;98931.10;124667;1099;104261;-74
2022/09/28 06:57:38;;;;;;;35.73;20.50;;;;;;;18.17;85.27;98916.75;124722;1098;120030;-75
2022/09/28 07:00:21;;;;;;;28.63;19.03;;;;;;;18.20;85.36;98927.31;124660;1099;102780;-75
2022/09/28 07:02:58;;;;;;;31.57;19.97;;;;;;;18.22;85.47;98924.63;125548;1098;104172;-76
2022/09/28 07:05:59;;;;;;;33.00;20.97;;;;;;;18.22;84.53;98922.83;125585;1099;104159;-76
2022/09/28 07:08:53;;;;;;;29.57;20.50;;;;;;;18.26;85.21;98915.67;124544;1099;104300;-75
2022/09/28 07:11:52;;;;;;;33.95;19.55;;;;;;;18.30;85.28;98922.67;124763;1099;104265;-75
2022/09/28 07:14:32;;;;;;;31.00;20.13;;;;;;;18.30;84.91;98917.36;125042;1102;104434;-76
2022/09/28 07:17:15;;;;;;;29.30;19.95;;;;;;;18.25;84.05;98920.11;125208;1099;104602;-75
2022/09/28 07:20:31;;;;;;;30.97;20.50;;;;;;;18.27;84.49;98915.64;125083;1099;104166;-75
2022/09/28 07:23:05;;;;;;;29.80;19.87;;;;;;;18.31;84.04;98914.67;125414;1099;104159;-74
2022/09/28 07:25:56;;;;;;;29.77;20.27;;;;;;;18.36;84.17;98916.38;125435;1098;102554;-75
2022/09/28 07:28:40;;;;;;;30.90;20.33;;;;;;;18.37;83.88;98912.78;125008;1098;107021;-75
2022/09/28 07:31:52;;;;;;;30.20;19.30;;;;;;;18.38;83.93;98910.09;125441;1099;104271;-76
2022/09/28 07:34:43;;;;;;;30.67;20.00;;;;;;;18.42;84.23;98901.17;125054;1099;102778;-75
2022/09/28 07:37:44;;;;;;;31.67;19.73;;;;;;;18.47;83.58;98903.73;125191;1099;104744;-73
2022/09/28 07:43:13;;;;;;;30.13;19.63;;;;;;;18.52;84.15;98904.48;124584;1099;104246;-76
2022/09/28 07:45:49;;;;;;;32.20;19.97;;;;;;;18.59;84.02;98903.45;124650;1099;104175;-75
2022/09/28 07:48:21;;;;;;;30.72;19.70;;;;;;;18.71;84.00;98912.05;124708;1099;104204;-75
2022/09/28 07:51:06;;;;;;;30.43;19.93;;;;;;;18.84;83.81;98908.21;124700;1099;104166;-75
2022/09/28 07:53:55;;;;;;;32.27;20.27;;;;;;;18.97;83.06;98912.34;124746;1098;104282;-75
2022/09/28 07:56:39;;;;;;;33.23;21.23;;;;;;;18.92;82.98;98921.35;124691;1098;102227;-76
2022/09/28 07:59:21;;;;;;;31.23;19.90;;;;;;;18.88;82.91;98925.84;124293;1098;104187;-75
2022/09/28 08:02:13;;;;;;;31.13;19.97;;;;;;;18.84;82.63;98935.68;124758;1099;104166;-76
2022/09/28 08:04:50;;;;;;;31.87;20.13;;;;;;;18.83;83.12;98936.55;124245;1102;104198;-74
2022/09/28 08:07:24;;;;;;;32.77;19.53;;;;;;;18.81;83.10;98946.34;124285;1102;103954;-74
2022/09/28 08:10:11;;;;;;;34.87;21.87;;;;;;;18.72;82.45;98956.31;124681;1099;104233;-75
2022/09/28 08:13:11;;;;;;;33.83;21.27;;;;;;;18.60;82.48;98963.63;125580;1099;104245;-76
2022/09/28 08:16:06;;;;;;;35.87;20.50;;;;;;;18.48;81.77;98963.88;125631;1099;104169;-75
2022/09/28 08:18:53;;;;;;;33.30;20.40;;;;;;;18.38;81.85;98979.14;124805;1098;104163;-75
2022/09/28 08:24:16;;;;;;;34.10;21.40;;;;;;;18.27;82.22;98987.32;124337;1099;104278;-75
2022/09/28 08:26:48;;;;;;;33.98;20.72;;;;;;;18.25;82.14;98994.45;124629;1099;104223;-75
2022/09/28 08:29:23;;;;;;;34.30;21.05;;;;;;;18.27;82.63;98987.32;124345;1102;104661;-76
2022/09/28 08:31:56;;;;;;;34.20;20.50;;;;;;;18.32;82.74;99003.16;124793;1099;102826;-75
2022/09/28 08:34:54;;;;;;;35.80;21.67;;;;;;;18.31;82.44;98998.78;124653;1099;104232;-75
2022/09/28 08:37:49;;;;;;;37.67;21.13;;;;;;;18.39;82.65;99002.14;124718;1099;102270;-75
2022/09/28 08:40:50;;;;;;;38.80;22.40;;;;;;;18.44;82.79;99015.33;125504;1098;104325;-74
2022/09/28 08:44:22;;;;;;;35.13;20.77;;;;;;;18.50;82.75;99012.55;124385;1100;101909;-75
2022/09/28 08:50:31;;;;;;;32.30;20.33;;;;;;;18.61;82.48;99007.89;124446;1099;119236;-78
2022/09/28 08:53:41;;;;;;;33.57;20.93;;;;;;;18.65;82.08;99014.89;124736;1099;102046;-75
2022/09/28 08:56:39;;;;;;;37.60;21.17;;;;;;;18.68;82.54;99008.63;124813;1098;104207;-76
2022/09/28 08:59:33;;;;;;;34.27;20.47;;;;;;;18.71;82.22;99008.55;125628;1099;104169;-76
2022/09/28 09:02:20;;;;;;;37.33;22.40;;;;;;;18.70;82.03;99006.83;125370;1099;102374;-76
2022/09/28 09:04:57;;;;;;;37.10;20.70;;;;;;;18.71;82.32;99005.03;125569;1099;104283;-76
2022/09/28 09:10:53;;;;;;;40.13;23.47;;;;;;;18.67;81.95;99004.23;124972;1102;104290;-75
2022/09/28 09:14:04;;;;;;;35.00;22.10;;;;;;;18.80;81.96;99002.19;125042;1099;102251;-75
2022/09/28 09:16:43;;;;;;;;;;;;;;;18.95;82.35;99001.87;125103;1099;102810;-76
2022/09/28 09:19:41;;;;;;;36.83;22.07;;;;;;;19.09;81.54;99004.23;124791;1099;102911;-75
2022/09/28 09:22:36;;;;;;;35.07;21.63;;;;;;;19.22;81.43;99002.15;124220;1099;104267;-75
2022/09/28 09:25:20;;;;;;;35.00;20.92;;;;;;;19.29;81.51;99000.21;124421;1102;104162;-76
2022/09/28 09:28:21;;;;;;;37.53;22.43;;;;;;;19.52;81.54;99002.31;124327;1099;102525;-74
2022/09/28 09:31:07;;;;;;;35.97;21.20;;;;;;;19.77;81.44;98999.94;124427;1099;102305;-75
2022/09/28 09:34:14;;;;;;;33.67;21.33;;;;;;;19.83;81.35;99007.77;124823;1099;104175;-74
2022/09/28 09:37:16;;;;;;;34.20;20.77;;;;;;;19.86;79.82;99001.50;124719;1099;104159;-74
2022/09/28 09:40:29;;;;;;;33.20;19.93;;;;;;;20.01;79.99;98995.77;124718;1099;102165;-74
2022/09/28 09:43:18;;;;;;;30.50;19.10;;;;;;;20.15;80.21;98999.83;124280;1099;104175;-73
2022/09/28 09:46:14;;;;;;;35.80;20.17;;;;;;;20.19;80.18;98998.84;124291;1099;104153;-74
2022/09/28 09:49:14;;;;;;;33.37;20.40;;;;;;;20.22;79.92;98988.10;124313;1099;104574;-75
2022/09/28 09:51:53;;;;;;;30.40;18.27;;;;;;;20.37;79.57;98993.00;124305;1099;102179;-75
2022/09/28 09:57:45;;;;;;;31.42;18.17;;;;;;;20.63;79.09;99004.68;124684;1099;102166;-75
2022/09/28 10:00:41;;;;;;;31.43;18.40;;;;;;;20.69;79.63;98998.34;124310;1099;104232;-75
2022/09/28 10:03:30;;;;;;;28.40;17.23;;;;;;;20.91;79.60;98999.45;124740;1099;103063;-76
2022/09/28 10:06:16;;;;;;;30.77;18.13;;;;;;;21.06;78.19;99008.77;124227;1099;104389;-75
2022/09/28 10:08:56;;;;;;;32.40;19.47;;;;;;;21.05;77.58;99006.14;124728;1099;101947;-75
2022/09/28 10:11:34;;;;;;;31.33;17.60;;;;;;;21.00;77.65;99014.28;124265;1099;104157;-75
2022/09/28 10:14:26;;;;;;;31.03;18.40;;;;;;;20.95;77.59;99010.89;124548;1099;103569;-76
2022/09/28 10:17:16;;;;;;;30.97;18.00;;;;;;;20.97;77.08;99009.04;125543;1099;104153;-75
2022/09/28 10:20:11;;;;;;;32.77;18.03;;;;;;;20.98;77.31;99008.13;124702;1099;104162;-75
2022/09/28 10:23:00;;;;;;;31.87;17.93;;;;;;;20.96;76.90;99005.52;124282;1099;104159;-76
2022/09/28 10:25:38;;;;;;;29.93;15.83;;;;;;;20.96;77.50;99017.98;124214;1102;104951;-75
2022/09/28 10:28:17;;;;;;;27.70;16.10;;;;;;;20.90;77.13;99008.37;124285;1102;102925;-76
2022/09/28 10:30:53;;;;;;;27.10;15.63;;;;;;;20.87;77.07;99007.59;124325;1102;104402;-76
2022/09/28 10:33:35;;;;;;;24.47;15.27;;;;;;;20.83;76.51;99013.02;124281;1099;107527;-75
2022/09/28 10:36:10;;;;;;;24.93;14.93;;;;;;;20.81;76.66;99012.17;124277;1099;104288;-74
2022/09/28 10:38:49;;;;;;;24.60;15.27;;;;;;;20.95;76.39;99017.09;124753;1099;104179;-76
2022/09/28 10:41:32;;;;;;;25.53;14.53;;;;;;;21.16;76.34;99009.34;124272;1099;104239;-75
2022/09/28 10:44:17;;;;;;;25.03;14.27;;;;;;;21.32;75.74;99007.08;124237;1102;102886;-75
2022/09/28 10:47:29;;;;;;;20.47;11.90;;;;;;;21.44;75.68;98998.68;124795;1099;104195;-75
2022/09/28 10:50:01;;;;;;;20.73;11.03;;;;;;;21.54;74.67;99004.61;124300;1102;102345;-73
2022/09/28 10:52:44;;;;;;;19.50;10.40;;;;;;;21.63;74.97;99014.09;124396;1102;102474;-74
2022/09/28 10:55:31;;;;;;;20.75;11.30;;;;;;;21.58;75.06;99016.05;124322;1102;102477;-75
2022/09/28 10:58:17;;;;;;;18.02;10.48;;;;;;;21.61;74.16;99016.81;124346;1100;104287;-75
2022/09/28 11:00:51;;;;;;;21.50;11.57;;;;;;;21.48;74.14;99007.45;124279;1099;104150;-75
2022/09/28 11:03:31;;;;;;;18.90;10.90;;;;;;;21.42;74.26;99010.31;124314;1102;104175;-76
2022/09/28 11:06:12;;;;;;;18.13;9.70;;;;;;;21.38;73.41;99017.55;124780;1099;104331;-74
2022/09/28 11:08:45;;;;;;;17.90;9.67;;;;;;;21.30;72.54;99012.47;124347;1101;102293;-75
2022/09/28 11:11:28;;;;;;;17.83;9.27;;;;;;;21.29;73.06;99015.18;124214;1102;104287;-75
2022/09/28 11:14:26;;;;;;;17.77;9.08;;;;;;;21.28;73.51;99019.63;124325;1102;108190;-76
2022/09/28 11:17:18;;;;;;;17.80;9.27;;;;;;;21.29;73.24;99020.52;124330;1099;104246;-77
2022/09/28 11:19:51;;;;;;;22.47;9.53;;;;;;;21.30;73.22;99019.58;124331;1099;104277;-77
2022/09/28 11:22:28;;;;;;;15.07;9.13;;;;;;;21.41;73.05;99013.89;124295;1099;104268;-76
2022/09/28 11:25:24;;;;;;;15.87;8.37;;;;;;;21.47;72.91;99016.36;124409;1102;102848;-76
2022/09/28 11:28:00;;;;;;;14.03;8.20;;;;;;;21.57;72.66;99016.99;124296;1102;102610;-75
2022/09/28 11:30:40;;;;;;;15.97;8.83;;;;;;;21.63;71.74;99020.32;124295;1099;104185;-76
2022/09/28 11:33:48;;;;;;;8.93;6.10;;;;;;;21.54;71.44;99020.63;124197;1102;104396;-74
2022/09/28 11:36:57;;;;;;;11.30;5.95;;;;;;;21.63;69.20;99025.66;124237;1099;102833;-74
2022/09/28 11:39:39;;;;;;;8.87;5.03;;;;;;;21.73;68.03;99020.88;124332;1099;102974;-75
2022/09/28 11:42:28;;;;;;;10.90;5.57;;;;;;;21.82;68.00;99019.70;124194;1099;104256;-75
2022/09/28 11:45:16;;;;;;;11.30;5.87;;;;;;;21.86;67.75;99027.56;124681;1099;102013;-75
2022/09/28 11:48:01;;;;;;;7.33;4.70;;;;;;;21.88;67.12;99020.36;124694;1099;104654;-76
2022/09/28 11:50:46;;;;;;;9.10;5.20;;;;;;;21.97;67.09;99018.29;124789;1099;104657;-76
2022/09/28 11:53:29;;;;;;;11.43;4.92;;;;;;;22.04;67.45;99019.83;124777;1099;102778;-75
2022/09/28 11:56:22;;;;;;;7.43;4.57;;;;;;;22.07;66.67;99022.40;124227;1099;104282;-76
2022/09/28 11:59:00;;;;;;;6.37;4.40;;;;;;;22.09;64.92;99023.20;124311;1099;104180;-76
2022/09/28 12:01:47;;;;;;;9.53;3.93;;;;;;;22.12;65.19;99023.09;124698;1099;104688;-76
2022/09/28 12:04:34;;;;;;;7.13;4.23;;;;;;;22.04;65.70;99025.17;124526;1099;104223;-76
2022/09/28 12:07:17;;;;;;;8.37;3.70;;;;;;;21.96;64.77;99024.58;124823;1099;102579;-77
2022/09/28 12:10:00;;;;;;;12.00;3.93;;;;;;;21.99;64.08;99028.00;125584;1099;104217;-77
2022/09/28 12:12:37;;;;;;;6.10;3.40;;;;;;;22.00;63.54;99024.42;125070;1099;104226;-77
2022/09/28 12:15:21;;;;;;;8.20;3.43;;;;;;;21.97;62.41;99021.86;125125;1099;104252;-76
2022/09/28 12:17:57;;;;;;;6.33;3.30;;;;;;;22.01;62.77;99025.28;125566;1098;104172;-77
2022/09/28 12:20:40;;;;;;;5.47;3.30;;;;;;;22.03;62.33;99023.42;125645;1099;104314;-77
2022/09/28 12:23:31;;;;;;;6.83;3.23;;;;;;;22.05;62.26;99025.13;125586;1099;104204;-77
2022/09/28 12:26:15;;;;;;;4.97;3.00;;;;;;;22.13;62.36;99035.54;125074;1099;102420;-75